Smitwijs London — PCBI — position and weather

sailwx.info

Track history (hours):
 
Tides and Currents Weather Stations Pressure Air Temp Water Temp Dewpoint Dewpoint Depression Visibility Wind Speed Wind Dir Waves Ship Positions

Smitwijs London

Last reported at 2015-Aug-03 20:34 UTC. Time now 2015-Aug-03 21:23 UTC.
Position N 51°55' E 004°25'.

Length 75 m; beam 16 m.

Type: Tug. MMSI: 244098956.

Date/timePositionNaut miles runAvg speedWind from/ knotsBaromVisibWave heightAir tempDewpointWater temp
2015-Aug-03 20:34N 51°55' E 004°25'0 0.0
2015-Aug-03 19:34N 51°55' E 004°25'0 0.0
2015-Aug-03 18:34N 51°55' E 004°25'0 0.0
2015-Aug-03 17:34N 51°55' E 004°25'1 1.3
2015-Aug-03 16:34N 51°54' E 004°26'1 1.1
2015-Aug-03 15:34N 51°54' E 004°25'1 1.0
2015-Aug-03 14:34N 51°54' E 004°26'0 0.0
2015-Aug-03 13:34N 51°54' E 004°26'0 0.0
2015-Aug-03 12:34N 51°54' E 004°26'0 0.2
2015-Aug-03 11:34N 51°53' E 004°26'2 1.6
2015-Aug-03 10:34N 51°54' E 004°23'2 0.9
2015-Aug-03 08:34N 51°55' E 004°25'0 0.0
2015-Aug-03 07:34N 51°55' E 004°25'0 0.0
2015-Aug-03 06:34N 51°55' E 004°25'0 0.0
2015-Aug-03 05:33N 51°55' E 004°25'0 0.0
2015-Aug-03 03:34N 51°55' E 004°25'0 0.0
2015-Aug-03 02:34N 51°55' E 004°25'0 0.0
2015-Aug-03 01:34N 51°55' E 004°25'0 0.0
2015-Aug-03 00:33N 51°55' E 004°25'0 0.0
2015-Aug-02 23:33N 51°55' E 004°25'0 0.0
2015-Aug-02 22:34N 51°55' E 004°25'0 0.0
2015-Aug-02 21:34N 51°55' E 004°25'1 1.3
2015-Aug-02 20:34N 51°53' E 004°26'2 1.8
2015-Aug-02 19:33N 51°54' E 004°23'3 3.0
2015-Aug-02 18:33N 51°53' E 004°18'0 0.0
2015-Aug-02 17:34N 51°53' E 004°18'0 0.0
2015-Aug-02 16:34N 51°53' E 004°18'0 0.0
2015-Aug-02 15:34N 51°53' E 004°18'0 0.0
2015-Aug-02 14:34N 51°53' E 004°18'0 0.0
2015-Aug-02 13:34N 51°53' E 004°18'0 0.0
2015-Aug-02 12:34N 51°53' E 004°18'0 0.0
2015-Aug-02 11:34N 51°53' E 004°18'2 1.6
2015-Aug-02 10:33N 51°52' E 004°16'4 4.1
2015-Aug-02 09:34N 51°54' E 004°22'3 2.9
2015-Aug-02 08:34N 51°53' E 004°27'0 0.0
2015-Aug-02 07:34N 51°53' E 004°27'0 0.0
2015-Aug-02 06:33N 51°53' E 004°27'0 0.0
2015-Aug-02 05:34N 51°53' E 004°27'0 0.0
2015-Aug-02 04:34N 51°53' E 004°27'0 0.0
2015-Aug-02 03:34N 51°53' E 004°27'0 0.0
2015-Aug-02 02:34N 51°53' E 004°27'0 0.0
2015-Aug-02 01:34N 51°53' E 004°27'7 6.7
2015-Aug-02 00:34N 51°52' E 004°16'0 0.5
2015-Aug-01 23:34N 51°53' E 004°16'2 1.6
2015-Aug-01 22:34N 51°53' E 004°18'5 5.3
2015-Aug-01 21:33N 51°53' E 004°27'0 0.0
2015-Aug-01 20:34N 51°53' E 004°27'0 0.0
2015-Aug-01 19:33N 51°53' E 004°27'0 0.0
2015-Aug-01 18:33N 51°53' E 004°27'0 0.0
2015-Aug-01 17:34N 51°53' E 004°27'0 0.0
2015-Aug-01 16:33N 51°53' E 004°27'0 0.0
2015-Aug-01 15:34N 51°53' E 004°27'0 0.0
2015-Aug-01 14:34N 51°53' E 004°27'0 0.0
2015-Aug-01 13:34N 51°53' E 004°27'0 0.0
2015-Aug-01 12:34N 51°53' E 004°27'0 0.0
2015-Aug-01 11:34N 51°53' E 004°27'0 0.0
2015-Aug-01 10:34N 51°53' E 004°27'0 0.0
2015-Aug-01 09:33N 51°53' E 004°27'0 0.0
2015-Aug-01 08:34N 51°53' E 004°27'0 0.0
2015-Aug-01 07:34N 51°53' E 004°27'0 0.0
2015-Aug-01 06:34N 51°53' E 004°27'0 0.0
2015-Aug-01 05:34N 51°53' E 004°27'0 0.0
2015-Aug-01 04:34N 51°53' E 004°27'1 0.6
2015-Aug-01 03:34N 51°54' E 004°26'0 0.3
2015-Aug-01 02:34N 51°53' E 004°26'0 0.1
2015-Aug-01 01:34N 51°53' E 004°26'2 2.1
2015-Aug-01 00:34N 51°54' E 004°23'6 6.4
2015-Jul-31 23:34N 51°56' E 004°13'5 4.8
2015-Jul-31 22:34N 51°58' E 004°06'0 0.0
2015-Jul-31 21:34N 51°58' E 004°06'0 0.0
2015-Jul-31 20:34N 51°58' E 004°06'0 0.0
2015-Jul-31 19:34N 51°58' E 004°06'0 0.0
2015-Jul-31 18:33N 51°58' E 004°06'0 0.0
2015-Jul-31 17:34N 51°58' E 004°06'0 0.0
2015-Jul-31 16:34N 51°58' E 004°06'0 0.0
2015-Jul-31 15:34N 51°58' E 004°06'0 0.0
2015-Jul-31 14:33N 51°58' E 004°06'0 0.0
2015-Jul-31 13:34N 51°58' E 004°06'0 0.0
2015-Jul-31 12:34N 51°58' E 004°06'0 0.0
2015-Jul-31 11:34N 51°58' E 004°06'0 0.0
2015-Jul-31 10:33N 51°58' E 004°06'0 0.0
2015-Jul-31 09:34N 51°58' E 004°06'0 0.0
2015-Jul-31 08:34N 51°58' E 004°06'0 0.0
2015-Jul-31 07:33N 51°58' E 004°06'0 0.0
2015-Jul-31 06:34N 51°58' E 004°06'1 0.6
2015-Jul-31 05:34N 51°58' E 004°05'1 0.6
2015-Jul-31 04:34N 51°58' E 004°06'0 0.0
2015-Jul-31 03:34N 51°58' E 004°06'0 0.0
2015-Jul-31 02:34N 51°58' E 004°06'0 0.0
2015-Jul-31 01:34N 51°58' E 004°06'0 0.0
2015-Jul-31 00:34N 51°58' E 004°06'0 0.0
2015-Jul-30 23:34N 51°58' E 004°06'0 0.0
2015-Jul-30 22:34N 51°58' E 004°06'0 0.0
2015-Jul-30 21:34N 51°58' E 004°06'0 0.0
2015-Jul-30 20:34N 51°58' E 004°06'0 0.0
2015-Jul-30 19:34N 51°58' E 004°06'0 0.0
2015-Jul-30 18:34N 51°58' E 004°06'0 0.0
2015-Jul-30 17:34N 51°58' E 004°06'0 0.0
2015-Jul-30 16:34N 51°58' E 004°06'0 0.0
2015-Jul-30 15:33N 51°58' E 004°06'0 0.0
2015-Jul-30 14:34N 51°58' E 004°06'0 0.0
2015-Jul-30 13:34N 51°58' E 004°06'2 1.6
2015-Jul-30 12:34N 51°58' E 004°03'1 1.4
2015-Jul-30 11:34N 51°58' E 004°05'1 0.8
2015-Jul-30 10:34N 51°58' E 004°06'0 0.0
2015-Jul-30 09:34N 51°58' E 004°06'0 0.0
2015-Jul-30 08:33N 51°58' E 004°06'1 1.0
2015-Jul-30 07:33N 51°57' E 004°05'0 0.0
2015-Jul-30 06:34N 51°57' E 004°05'0 0.0
2015-Jul-30 05:34N 51°57' E 004°05'0 0.0
2015-Jul-30 04:34N 51°57' E 004°05'0 0.0
2015-Jul-30 03:34N 51°57' E 004°05'0 0.0
2015-Jul-30 02:34N 51°57' E 004°05'0 0.0
2015-Jul-30 01:34N 51°57' E 004°05'1 0.5
2015-Jul-30 00:33N 51°58' E 004°04'1 0.6
2015-Jul-29 23:34N 51°58' E 004°05'1 0.9
2015-Jul-29 22:33N 51°57' E 004°05'1 0.6
2015-Jul-29 21:34N 51°58' E 004°04'0 0.2
2015-Jul-29 20:34N 51°58' E 004°05'0 0.5
2015-Jul-29 19:33N 51°58' E 004°04'2 1.7
2015-Jul-29 18:34N 51°59' E 004°02'0 0.0
2015-Jul-29 17:33N 51°59' E 004°02'2 1.6
2015-Jul-29 16:34N 51°58' E 004°04'1 1.2
2015-Jul-29 15:34N 51°58' E 004°06'0 0.0
2015-Jul-29 14:34N 51°58' E 004°06'0 0.0
2015-Jul-29 13:34N 51°58' E 004°06'2 1.7
2015-Jul-29 12:33N 51°58' E 004°03'2 1.9
2015-Jul-29 11:34N 51°58' E 003°60'4 3.5
2015-Jul-29 10:33N 51°58' E 004°06'0 0.0
2015-Jul-29 09:34N 51°58' E 004°06'0 0.1
2015-Jul-29 08:33N 51°58' E 004°06'1 0.9
2015-Jul-29 07:34N 51°59' E 004°05'1 1.5
2015-Jul-29 06:34N 51°57' E 004°05'0 0.0
2015-Jul-29 05:34N 51°57' E 004°05'0 0.0
2015-Jul-29 04:34N 51°57' E 004°05'0 0.0
2015-Jul-29 03:34N 51°57' E 004°05'0 0.0
2015-Jul-29 02:34N 51°57' E 004°05'0 0.0
2015-Jul-29 01:34N 51°57' E 004°05'0 0.0
2015-Jul-29 00:34N 51°57' E 004°05'0 0.0
2015-Jul-28 23:34N 51°57' E 004°05'0 0.0
2015-Jul-28 22:34N 51°57' E 004°05'0 0.0
2015-Jul-28 21:34N 51°57' E 004°05'0 0.0
2015-Jul-28 20:34N 51°57' E 004°05'1 0.6
2015-Jul-28 19:34N 51°58' E 004°05'1 0.6
2015-Jul-28 18:34N 51°57' E 004°05'0 0.0
2015-Jul-28 17:33N 51°57' E 004°05'0 0.0
2015-Jul-28 16:33N 51°57' E 004°05'1 1.3
2015-Jul-28 15:34N 51°57' E 004°03'1 1.3
2015-Jul-28 14:34N 51°57' E 004°05'0 0.0
2015-Jul-28 13:33N 51°57' E 004°05'0 0.0
2015-Jul-28 12:34N 51°57' E 004°05'0 0.0
2015-Jul-28 11:34N 51°57' E 004°05'0 0.0
2015-Jul-28 10:33N 51°57' E 004°05'0 0.0
2015-Jul-28 09:34N 51°57' E 004°05'0 0.0
2015-Jul-28 08:34N 51°57' E 004°05'0 0.0
2015-Jul-28 07:34N 51°57' E 004°05'0 0.0
2015-Jul-28 06:33N 51°57' E 004°05'0 0.0
2015-Jul-28 05:34N 51°57' E 004°05'1 0.6
2015-Jul-28 04:34N 51°58' E 004°05'1 0.6
2015-Jul-28 03:34N 51°57' E 004°05'0 0.0
2015-Jul-28 02:34N 51°57' E 004°05'0 0.0
2015-Jul-28 01:34N 51°57' E 004°05'0 0.0
2015-Jul-28 00:34N 51°57' E 004°05'0 0.0
2015-Jul-27 23:34N 51°57' E 004°05'1 1.4
2015-Jul-27 22:34N 51°57' E 004°02'0 0.2
2015-Jul-27 21:34N 51°58' E 004°03'2 1.6
2015-Jul-27 20:34N 51°59' E 004°04'2 1.7
2015-Jul-27 19:34N 51°57' E 004°05'0 0.0
2015-Jul-27 18:34N 51°57' E 004°05'0 0.0
2015-Jul-27 17:34N 51°57' E 004°05'0 0.0
2015-Jul-27 16:33N 51°57' E 004°05'0 0.0
2015-Jul-27 15:33N 51°57' E 004°05'0 0.3
2015-Jul-27 14:34N 51°57' E 004°04'2 1.8
2015-Jul-27 13:34N 51°59' E 004°05'2 1.9
2015-Jul-27 12:33N 51°57' E 004°04'0 0.3
2015-Jul-27 11:34N 51°57' E 004°04'0 0.1
2015-Jul-27 10:34N 51°57' E 004°05'0 0.0
2015-Jul-27 09:34N 51°57' E 004°05'0 0.0
2015-Jul-27 08:34N 51°57' E 004°05'0 0.0
2015-Jul-27 07:34N 51°57' E 004°05'0 0.0
2015-Jul-27 06:34N 51°57' E 004°05'0 0.0
2015-Jul-27 05:34N 51°57' E 004°05'0 0.0
2015-Jul-27 04:34N 51°57' E 004°05'0 0.0
2015-Jul-27 03:33N 51°57' E 004°05'0 0.0
2015-Jul-27 02:34N 51°57' E 004°05'0 0.0
2015-Jul-27 01:34N 51°57' E 004°05'0 0.0
2015-Jul-27 00:34N 51°57' E 004°05'1 1.2
2015-Jul-26 23:33N 51°57' E 004°03'1 1.3
2015-Jul-26 22:34N 51°57' E 004°05'0 0.0
2015-Jul-26 21:34N 51°57' E 004°05'0 0.0
2015-Jul-26 20:33N 51°57' E 004°05'0 0.0
2015-Jul-26 19:34N 51°57' E 004°05'0 0.0
2015-Jul-26 18:34N 51°57' E 004°05'0 0.0
2015-Jul-26 17:34N 51°57' E 004°05'0 0.0
2015-Jul-26 16:34N 51°57' E 004°05'0 0.0
2015-Jul-26 15:33N 51°57' E 004°05'0 0.0
2015-Jul-26 14:33N 51°57' E 004°05'0 0.0
2015-Jul-26 13:34N 51°57' E 004°05'0 0.0
2015-Jul-26 12:34N 51°57' E 004°05'0 0.0
2015-Jul-26 11:34N 51°57' E 004°05'0 0.0
2015-Jul-26 10:34N 51°57' E 004°05'0 0.0
2015-Jul-26 09:33N 51°57' E 004°05'0 0.0
2015-Jul-26 08:34N 51°57' E 004°05'0 0.0
2015-Jul-26 07:34N 51°57' E 004°05'4 3.7
2015-Jul-26 06:34N 51°56' E 004°11'0 0.4
2015-Jul-26 05:34N 51°56' E 004°11'4 3.9
2015-Jul-26 04:34N 51°58' E 004°06'1 1.3
2015-Jul-26 03:34N 51°59' E 004°04'1 1.3
2015-Jul-26 02:34N 51°58' E 004°04'0 0.1
2015-Jul-26 01:34N 51°58' E 004°04'1 0.7
2015-Jul-26 00:34N 51°57' E 004°04'0 0.5
2015-Jul-25 23:34N 51°57' E 004°05'0 0.2
2015-Jul-25 22:34N 51°57' E 004°05'0 0.0
2015-Jul-25 21:34N 51°57' E 004°05'0 0.0
2015-Jul-25 20:34N 51°57' E 004°05'0 0.0
2015-Jul-25 19:34N 51°57' E 004°05'0 0.0
2015-Jul-25 18:34N 51°57' E 004°05'0 0.0
2015-Jul-25 17:34N 51°57' E 004°05'0 0.0
2015-Jul-25 16:34N 51°57' E 004°05'0 0.0
2015-Jul-25 15:34N 51°57' E 004°05'0 0.0
2015-Jul-25 14:34N 51°57' E 004°05'0 0.0
2015-Jul-25 13:33N 51°57' E 004°05'2 1.7
2015-Jul-25 12:34N 51°58' E 004°07'4 4.3
2015-Jul-25 11:34N 51°56' E 004°12'5 5.1
2015-Jul-25 10:34N 51°58' E 004°05'1 1.2
2015-Jul-25 09:34N 51°57' E 004°05'0 0.0
2015-Jul-25 08:34N 51°57' E 004°05'0 0.0
2015-Jul-25 07:33N 51°57' E 004°05'0 0.0
2015-Jul-25 06:34N 51°57' E 004°05'0 0.0
2015-Jul-25 05:34N 51°57' E 004°05'0 0.0
2015-Jul-25 04:34N 51°57' E 004°05'0 0.0
2015-Jul-25 03:34N 51°57' E 004°05'0 0.0
2015-Jul-25 02:33N 51°57' E 004°05'0 0.0
2015-Jul-25 01:34N 51°57' E 004°05'0 0.0
2015-Jul-25 00:34N 51°57' E 004°05'0 0.0
2015-Jul-24 23:34N 51°57' E 004°05'2 1.6
2015-Jul-24 22:34N 51°58' E 004°02'0 0.0
2015-Jul-24 21:34N 51°58' E 004°03'  
Track history (hours):
 
Tides and Currents Weather Stations Pressure Air Temp Water Temp Dewpoint Dewpoint Depression Visibility Wind Speed Wind Dir Waves Ship Positions

Smitwijs London

Last reported at 2015-Aug-03 20:34 UTC. Time now 2015-Aug-03 21:23 UTC.
Position N 51°55' E 004°25'.

Length 75 m; beam 16 m.

Type: Tug. MMSI: 244098956.

Date/timePositionNaut miles runAvg speedWind from/ knotsBaromVisibWave heightAir tempDewpointWater temp
2015-Aug-03 20:34N 51°55' E 004°25'0 0.0
2015-Aug-03 19:34N 51°55' E 004°25'0 0.0
2015-Aug-03 18:34N 51°55' E 004°25'0 0.0
2015-Aug-03 17:34N 51°55' E 004°25'1 1.3
2015-Aug-03 16:34N 51°54' E 004°26'1 1.1
2015-Aug-03 15:34N 51°54' E 004°25'1 1.0
2015-Aug-03 14:34N 51°54' E 004°26'0 0.0
2015-Aug-03 13:34N 51°54' E 004°26'0 0.0
2015-Aug-03 12:34N 51°54' E 004°26'0 0.2
2015-Aug-03 11:34N 51°53' E 004°26'2 1.6
2015-Aug-03 10:34N 51°54' E 004°23'2 0.9
2015-Aug-03 08:34N 51°55' E 004°25'0 0.0
2015-Aug-03 07:34N 51°55' E 004°25'0 0.0
2015-Aug-03 06:34N 51°55' E 004°25'0 0.0
2015-Aug-03 05:33N 51°55' E 004°25'0 0.0
2015-Aug-03 03:34N 51°55' E 004°25'0 0.0
2015-Aug-03 02:34N 51°55' E 004°25'0 0.0
2015-Aug-03 01:34N 51°55' E 004°25'0 0.0
2015-Aug-03 00:33N 51°55' E 004°25'0 0.0
2015-Aug-02 23:33N 51°55' E 004°25'0 0.0
2015-Aug-02 22:34N 51°55' E 004°25'0 0.0
2015-Aug-02 21:34N 51°55' E 004°25'1 1.3
2015-Aug-02 20:34N 51°53' E 004°26'2 1.8
2015-Aug-02 19:33N 51°54' E 004°23'3 3.0
2015-Aug-02 18:33N 51°53' E 004°18'0 0.0
2015-Aug-02 17:34N 51°53' E 004°18'0 0.0
2015-Aug-02 16:34N 51°53' E 004°18'0 0.0
2015-Aug-02 15:34N 51°53' E 004°18'0 0.0
2015-Aug-02 14:34N 51°53' E 004°18'0 0.0
2015-Aug-02 13:34N 51°53' E 004°18'0 0.0
2015-Aug-02 12:34N 51°53' E 004°18'0 0.0
2015-Aug-02 11:34N 51°53' E 004°18'2 1.6
2015-Aug-02 10:33N 51°52' E 004°16'4 4.1
2015-Aug-02 09:34N 51°54' E 004°22'3 2.9
2015-Aug-02 08:34N 51°53' E 004°27'0 0.0
2015-Aug-02 07:34N 51°53' E 004°27'0 0.0
2015-Aug-02 06:33N 51°53' E 004°27'0 0.0
2015-Aug-02 05:34N 51°53' E 004°27'0 0.0
2015-Aug-02 04:34N 51°53' E 004°27'0 0.0
2015-Aug-02 03:34N 51°53' E 004°27'0 0.0
2015-Aug-02 02:34N 51°53' E 004°27'0 0.0
2015-Aug-02 01:34N 51°53' E 004°27'7 6.7
2015-Aug-02 00:34N 51°52' E 004°16'0 0.5
2015-Aug-01 23:34N 51°53' E 004°16'2 1.6
2015-Aug-01 22:34N 51°53' E 004°18'5 5.3
2015-Aug-01 21:33N 51°53' E 004°27'0 0.0
2015-Aug-01 20:34N 51°53' E 004°27'0 0.0
2015-Aug-01 19:33N 51°53' E 004°27'0 0.0
2015-Aug-01 18:33N 51°53' E 004°27'0 0.0
2015-Aug-01 17:34N 51°53' E 004°27'0 0.0
2015-Aug-01 16:33N 51°53' E 004°27'0 0.0
2015-Aug-01 15:34N 51°53' E 004°27'0 0.0
2015-Aug-01 14:34N 51°53' E 004°27'0 0.0
2015-Aug-01 13:34N 51°53' E 004°27'0 0.0
2015-Aug-01 12:34N 51°53' E 004°27'0 0.0
2015-Aug-01 11:34N 51°53' E 004°27'0 0.0
2015-Aug-01 10:34N 51°53' E 004°27'0 0.0
2015-Aug-01 09:33N 51°53' E 004°27'0 0.0
2015-Aug-01 08:34N 51°53' E 004°27'0 0.0
2015-Aug-01 07:34N 51°53' E 004°27'0 0.0
2015-Aug-01 06:34N 51°53' E 004°27'0 0.0
2015-Aug-01 05:34N 51°53' E 004°27'0 0.0
2015-Aug-01 04:34N 51°53' E 004°27'1 0.6
2015-Aug-01 03:34N 51°54' E 004°26'0 0.3
2015-Aug-01 02:34N 51°53' E 004°26'0 0.1
2015-Aug-01 01:34N 51°53' E 004°26'2 2.1
2015-Aug-01 00:34N 51°54' E 004°23'6 6.4
2015-Jul-31 23:34N 51°56' E 004°13'5 4.8
2015-Jul-31 22:34N 51°58' E 004°06'0 0.0
2015-Jul-31 21:34N 51°58' E 004°06'0 0.0
2015-Jul-31 20:34N 51°58' E 004°06'0 0.0
2015-Jul-31 19:34N 51°58' E 004°06'0 0.0
2015-Jul-31 18:33N 51°58' E 004°06'0 0.0
2015-Jul-31 17:34N 51°58' E 004°06'0 0.0
2015-Jul-31 16:34N 51°58' E 004°06'0 0.0
2015-Jul-31 15:34N 51°58' E 004°06'0 0.0
2015-Jul-31 14:33N 51°58' E 004°06'0 0.0
2015-Jul-31 13:34N 51°58' E 004°06'0 0.0
2015-Jul-31 12:34N 51°58' E 004°06'0 0.0
2015-Jul-31 11:34N 51°58' E 004°06'0 0.0
2015-Jul-31 10:33N 51°58' E 004°06'0 0.0
2015-Jul-31 09:34N 51°58' E 004°06'0 0.0
2015-Jul-31 08:34N 51°58' E 004°06'0 0.0
2015-Jul-31 07:33N 51°58' E 004°06'0 0.0
2015-Jul-31 06:34N 51°58' E 004°06'1 0.6
2015-Jul-31 05:34N 51°58' E 004°05'1 0.6
2015-Jul-31 04:34N 51°58' E 004°06'0 0.0
2015-Jul-31 03:34N 51°58' E 004°06'0 0.0
2015-Jul-31 02:34N 51°58' E 004°06'0 0.0
2015-Jul-31 01:34N 51°58' E 004°06'0 0.0
2015-Jul-31 00:34N 51°58' E 004°06'0 0.0
2015-Jul-30 23:34N 51°58' E 004°06'0 0.0
2015-Jul-30 22:34N 51°58' E 004°06'0 0.0
2015-Jul-30 21:34N 51°58' E 004°06'0 0.0
2015-Jul-30 20:34N 51°58' E 004°06'0 0.0
2015-Jul-30 19:34N 51°58' E 004°06'0 0.0
2015-Jul-30 18:34N 51°58' E 004°06'0 0.0
2015-Jul-30 17:34N 51°58' E 004°06'0 0.0
2015-Jul-30 16:34N 51°58' E 004°06'0 0.0
2015-Jul-30 15:33N 51°58' E 004°06'0 0.0
2015-Jul-30 14:34N 51°58' E 004°06'0 0.0
2015-Jul-30 13:34N 51°58' E 004°06'2 1.6
2015-Jul-30 12:34N 51°58' E 004°03'1 1.4
2015-Jul-30 11:34N 51°58' E 004°05'1 0.8
2015-Jul-30 10:34N 51°58' E 004°06'0 0.0
2015-Jul-30 09:34N 51°58' E 004°06'0 0.0
2015-Jul-30 08:33N 51°58' E 004°06'1 1.0
2015-Jul-30 07:33N 51°57' E 004°05'0 0.0
2015-Jul-30 06:34N 51°57' E 004°05'0 0.0
2015-Jul-30 05:34N 51°57' E 004°05'0 0.0
2015-Jul-30 04:34N 51°57' E 004°05'0 0.0
2015-Jul-30 03:34N 51°57' E 004°05'0 0.0
2015-Jul-30 02:34N 51°57' E 004°05'0 0.0
2015-Jul-30 01:34N 51°57' E 004°05'1 0.5
2015-Jul-30 00:33N 51°58' E 004°04'1 0.6
2015-Jul-29 23:34N 51°58' E 004°05'1 0.9
2015-Jul-29 22:33N 51°57' E 004°05'1 0.6
2015-Jul-29 21:34N 51°58' E 004°04'0 0.2
2015-Jul-29 20:34N 51°58' E 004°05'0 0.5
2015-Jul-29 19:33N 51°58' E 004°04'2 1.7
2015-Jul-29 18:34N 51°59' E 004°02'0 0.0
2015-Jul-29 17:33N 51°59' E 004°02'2 1.6
2015-Jul-29 16:34N 51°58' E 004°04'1 1.2
2015-Jul-29 15:34N 51°58' E 004°06'0 0.0
2015-Jul-29 14:34N 51°58' E 004°06'0 0.0
2015-Jul-29 13:34N 51°58' E 004°06'2 1.7
2015-Jul-29 12:33N 51°58' E 004°03'2 1.9
2015-Jul-29 11:34N 51°58' E 003°60'4 3.5
2015-Jul-29 10:33N 51°58' E 004°06'0 0.0
2015-Jul-29 09:34N 51°58' E 004°06'0 0.1
2015-Jul-29 08:33N 51°58' E 004°06'1 0.9
2015-Jul-29 07:34N 51°59' E 004°05'1 1.5
2015-Jul-29 06:34N 51°57' E 004°05'0 0.0
2015-Jul-29 05:34N 51°57' E 004°05'0 0.0
2015-Jul-29 04:34N 51°57' E 004°05'0 0.0
2015-Jul-29 03:34N 51°57' E 004°05'0 0.0
2015-Jul-29 02:34N 51°57' E 004°05'0 0.0
2015-Jul-29 01:34N 51°57' E 004°05'0 0.0
2015-Jul-29 00:34N 51°57' E 004°05'0 0.0
2015-Jul-28 23:34N 51°57' E 004°05'0 0.0
2015-Jul-28 22:34N 51°57' E 004°05'0 0.0
2015-Jul-28 21:34N 51°57' E 004°05'0 0.0
2015-Jul-28 20:34N 51°57' E 004°05'1 0.6
2015-Jul-28 19:34N 51°58' E 004°05'1 0.6
2015-Jul-28 18:34N 51°57' E 004°05'0 0.0
2015-Jul-28 17:33N 51°57' E 004°05'0 0.0
2015-Jul-28 16:33N 51°57' E 004°05'1 1.3
2015-Jul-28 15:34N 51°57' E 004°03'1 1.3
2015-Jul-28 14:34N 51°57' E 004°05'0 0.0
2015-Jul-28 13:33N 51°57' E 004°05'0 0.0
2015-Jul-28 12:34N 51°57' E 004°05'0 0.0
2015-Jul-28 11:34N 51°57' E 004°05'0 0.0
2015-Jul-28 10:33N 51°57' E 004°05'0 0.0
2015-Jul-28 09:34N 51°57' E 004°05'0 0.0
2015-Jul-28 08:34N 51°57' E 004°05'0 0.0
2015-Jul-28 07:34N 51°57' E 004°05'0 0.0
2015-Jul-28 06:33N 51°57' E 004°05'0 0.0
2015-Jul-28 05:34N 51°57' E 004°05'1 0.6
2015-Jul-28 04:34N 51°58' E 004°05'1 0.6
2015-Jul-28 03:34N 51°57' E 004°05'0 0.0
2015-Jul-28 02:34N 51°57' E 004°05'0 0.0
2015-Jul-28 01:34N 51°57' E 004°05'0 0.0
2015-Jul-28 00:34N 51°57' E 004°05'0 0.0
2015-Jul-27 23:34N 51°57' E 004°05'1 1.4
2015-Jul-27 22:34N 51°57' E 004°02'0 0.2
2015-Jul-27 21:34N 51°58' E 004°03'2 1.6
2015-Jul-27 20:34N 51°59' E 004°04'2 1.7
2015-Jul-27 19:34N 51°57' E 004°05'0 0.0
2015-Jul-27 18:34N 51°57' E 004°05'0 0.0
2015-Jul-27 17:34N 51°57' E 004°05'0 0.0
2015-Jul-27 16:33N 51°57' E 004°05'0 0.0
2015-Jul-27 15:33N 51°57' E 004°05'0 0.3
2015-Jul-27 14:34N 51°57' E 004°04'2 1.8
2015-Jul-27 13:34N 51°59' E 004°05'2 1.9
2015-Jul-27 12:33N 51°57' E 004°04'0 0.3
2015-Jul-27 11:34N 51°57' E 004°04'0 0.1
2015-Jul-27 10:34N 51°57' E 004°05'0 0.0
2015-Jul-27 09:34N 51°57' E 004°05'0 0.0
2015-Jul-27 08:34N 51°57' E 004°05'0 0.0
2015-Jul-27 07:34N 51°57' E 004°05'0 0.0
2015-Jul-27 06:34N 51°57' E 004°05'0 0.0
2015-Jul-27 05:34N 51°57' E 004°05'0 0.0
2015-Jul-27 04:34N 51°57' E 004°05'0 0.0
2015-Jul-27 03:33N 51°57' E 004°05'0 0.0
2015-Jul-27 02:34N 51°57' E 004°05'0 0.0
2015-Jul-27 01:34N 51°57' E 004°05'0 0.0
2015-Jul-27 00:34N 51°57' E 004°05'1 1.2
2015-Jul-26 23:33N 51°57' E 004°03'1 1.3
2015-Jul-26 22:34N 51°57' E 004°05'0 0.0
2015-Jul-26 21:34N 51°57' E 004°05'0 0.0
2015-Jul-26 20:33N 51°57' E 004°05'0 0.0
2015-Jul-26 19:34N 51°57' E 004°05'0 0.0
2015-Jul-26 18:34N 51°57' E 004°05'0 0.0
2015-Jul-26 17:34N 51°57' E 004°05'0 0.0
2015-Jul-26 16:34N 51°57' E 004°05'0 0.0
2015-Jul-26 15:33N 51°57' E 004°05'0 0.0
2015-Jul-26 14:33N 51°57' E 004°05'0 0.0
2015-Jul-26 13:34N 51°57' E 004°05'0 0.0
2015-Jul-26 12:34N 51°57' E 004°05'0 0.0
2015-Jul-26 11:34N 51°57' E 004°05'0 0.0
2015-Jul-26 10:34N 51°57' E 004°05'0 0.0
2015-Jul-26 09:33N 51°57' E 004°05'0 0.0
2015-Jul-26 08:34N 51°57' E 004°05'0 0.0
2015-Jul-26 07:34N 51°57' E 004°05'4 3.7
2015-Jul-26 06:34N 51°56' E 004°11'0 0.4
2015-Jul-26 05:34N 51°56' E 004°11'4 3.9
2015-Jul-26 04:34N 51°58' E 004°06'1 1.3
2015-Jul-26 03:34N 51°59' E 004°04'1 1.3
2015-Jul-26 02:34N 51°58' E 004°04'0 0.1
2015-Jul-26 01:34N 51°58' E 004°04'1 0.7
2015-Jul-26 00:34N 51°57' E 004°04'0 0.5
2015-Jul-25 23:34N 51°57' E 004°05'0 0.2
2015-Jul-25 22:34N 51°57' E 004°05'0 0.0
2015-Jul-25 21:34N 51°57' E 004°05'0 0.0
2015-Jul-25 20:34N 51°57' E 004°05'0 0.0
2015-Jul-25 19:34N 51°57' E 004°05'0 0.0
2015-Jul-25 18:34N 51°57' E 004°05'0 0.0
2015-Jul-25 17:34N 51°57' E 004°05'0 0.0
2015-Jul-25 16:34N 51°57' E 004°05'0 0.0
2015-Jul-25 15:34N 51°57' E 004°05'0 0.0
2015-Jul-25 14:34N 51°57' E 004°05'0 0.0
2015-Jul-25 13:33N 51°57' E 004°05'2 1.7
2015-Jul-25 12:34N 51°58' E 004°07'4 4.3
2015-Jul-25 11:34N 51°56' E 004°12'5 5.1
2015-Jul-25 10:34N 51°58' E 004°05'1 1.2
2015-Jul-25 09:34N 51°57' E 004°05'0 0.0
2015-Jul-25 08:34N 51°57' E 004°05'0 0.0
2015-Jul-25 07:33N 51°57' E 004°05'0 0.0
2015-Jul-25 06:34N 51°57' E 004°05'0 0.0
2015-Jul-25 05:34N 51°57' E 004°05'0 0.0
2015-Jul-25 04:34N 51°57' E 004°05'0 0.0
2015-Jul-25 03:34N 51°57' E 004°05'0 0.0
2015-Jul-25 02:33N 51°57' E 004°05'0 0.0
2015-Jul-25 01:34N 51°57' E 004°05'0 0.0
2015-Jul-25 00:34N 51°57' E 004°05'0 0.0
2015-Jul-24 23:34N 51°57' E 004°05'2 1.6
2015-Jul-24 22:34N 51°58' E 004°02'0 0.0
2015-Jul-24 21:34N 51°58' E 004°03'  

Dump ship's entire track history